Time;durP1;ratioP1;P1;durP2;ratioP2;P2;SDS_P1;SDS_P2;PMS_P1;PMS_P2;Temp;Humidity;BMP_temperature;BMP_pressure;BME280_temperature;BME280_humidity;BME280_pressure;Samples;Min_cycle;Max_cycle;Signal;HPM_P1;HPM_P2
2022/08/08 00:01:37;;;;;;;22.90;13.35;;;15.80;74.10;;;;;;4983654;28;20417;-77
2022/08/08 00:04:11;;;;;;;15.68;12.60;;;15.70;74.30;;;;;;4972665;28;20034;-80
2022/08/08 00:06:42;;;;;;;19.13;14.82;;;15.70;74.80;;;;;;4976903;28;20053;-78
2022/08/08 00:09:31;;;;;;;19.05;14.18;;;15.60;75.20;;;;;;4972795;28;20549;-81
2022/08/08 00:12:01;;;;;;;17.05;14.27;;;15.60;75.50;;;;;;4980419;28;20042;-80
2022/08/08 00:14:48;;;;;;;17.27;14.02;;;15.70;75.90;;;;;;4980132;28;20029;-79
2022/08/08 00:17:28;;;;;;;19.33;14.93;;;15.60;75.90;;;;;;4982135;28;20500;-78
2022/08/08 00:20:01;;;;;;;18.23;14.38;;;15.60;76.10;;;;;;4981365;28;20035;-79
2022/08/08 00:22:35;;;;;;;16.60;14.30;;;15.60;76.40;;;;;;5002924;28;20419;-80
2022/08/08 00:25:03;;;;;;;;;;;15.60;76.40;;;;;;4987288;28;20113;-79
2022/08/08 00:27:30;;;;;;;20.15;15.52;;;15.50;76.60;;;;;;4984871;28;19929;-77
2022/08/08 00:30:04;;;;;;;20.73;15.02;;;15.50;77.00;;;;;;4973584;28;20105;-80
2022/08/08 00:32:49;;;;;;;19.00;15.10;;;15.50;77.20;;;;;;4989537;28;20077;-79
2022/08/08 00:35:40;;;;;;;18.65;16.17;;;15.40;77.40;;;;;;4982750;28;20026;-78
2022/08/08 00:38:24;;;;;;;21.38;15.60;;;15.50;77.40;;;;;;4979438;28;20041;-80
2022/08/08 00:41:09;;;;;;;22.33;17.70;;;15.40;77.60;;;;;;4981780;28;20051;-77
2022/08/08 00:43:46;;;;;;;23.58;16.88;;;15.40;77.80;;;;;;4983783;28;20042;-78
2022/08/08 00:46:40;;;;;;;30.17;17.98;;;15.30;78.00;;;;;;4980180;28;20038;-80
2022/08/08 00:49:21;;;;;;;23.20;19.20;;;15.30;78.20;;;;;;4992823;28;20030;-78
2022/08/08 00:52:05;;;;;;;20.95;18.30;;;15.30;78.20;;;;;;5005815;28;20053;-77
2022/08/08 00:54:43;;;;;;;24.10;19.23;;;15.30;78.50;;;;;;4985600;28;20457;-80
2022/08/08 00:57:12;;;;;;;25.05;20.17;;;15.30;78.70;;;;;;4979091;28;20041;-82
2022/08/08 01:00:02;;;;;;;20.27;17.02;;;15.30;79.00;;;;;;4984453;28;20038;-79
2022/08/08 01:02:46;;;;;;;22.25;18.00;;;15.20;78.90;;;;;;4997247;28;20044;-78
2022/08/08 01:05:36;;;;;;;21.13;17.95;;;15.20;78.90;;;;;;4980192;28;20062;-77
2022/08/08 01:08:33;;;;;;;19.70;16.85;;;15.20;78.90;;;;;;4988483;28;20034;-77
2022/08/08 01:10:58;;;;;;;20.00;16.08;;;15.20;78.80;;;;;;4980607;28;20055;-78
2022/08/08 01:13:46;;;;;;;20.25;17.73;;;15.10;78.90;;;;;;5002494;28;20038;-79
2022/08/08 01:16:50;;;;;;;23.48;18.25;;;15.10;79.00;;;;;;4992707;28;20053;-77
2022/08/08 01:19:38;;;;;;;22.77;17.80;;;15.10;79.10;;;;;;4979435;28;20045;-83
2022/08/08 01:22:48;;;;;;;21.65;17.38;;;15.10;79.10;;;;;;5016699;28;20036;-79
2022/08/08 01:25:38;;;;;;;20.05;16.13;;;15.10;79.20;;;;;;4994908;28;20034;-83
2022/08/08 01:28:15;;;;;;;19.65;16.95;;;15.00;79.20;;;;;;4982801;28;20039;-82
2022/08/08 01:30:52;;;;;;;19.60;16.90;;;15.00;79.10;;;;;;4982570;28;20047;-77
2022/08/08 01:33:37;;;;;;;22.58;17.58;;;15.00;78.90;;;;;;4982265;28;20294;-77
2022/08/08 01:36:18;;;;;;;19.83;17.33;;;14.90;78.90;;;;;;5010696;28;20056;-77
2022/08/08 01:39:09;;;;;;;22.05;17.35;;;14.90;79.00;;;;;;5010494;28;20044;-78
2022/08/08 01:41:54;;;;;;;19.92;16.85;;;14.80;79.20;;;;;;5000918;28;20046;-78
2022/08/08 01:44:50;;;;;;;21.90;16.88;;;14.80;79.40;;;;;;4996860;28;20042;-82
2022/08/08 01:47:31;;;;;;;22.67;17.65;;;14.70;79.60;;;;;;4984091;28;20434;-78
2022/08/08 01:50:08;;;;;;;25.23;18.58;;;14.70;79.70;;;;;;5012373;28;20092;-77
2022/08/08 01:53:02;;;;;;;19.92;17.27;;;14.70;80.00;;;;;;4984139;28;20132;-79
2022/08/08 01:56:03;;;;;;;23.55;19.83;;;14.70;80.00;;;;;;4981918;28;20046;-77
2022/08/08 01:58:37;;;;;;;23.02;20.00;;;14.70;80.10;;;;;;5022316;28;20145;-78
2022/08/08 02:01:14;;;;;;;23.08;19.52;;;14.60;80.80;;;;;;5006281;28;20034;-78
2022/08/08 02:04:14;;;;;;;24.70;20.83;;;14.60;81.10;;;;;;5002326;28;20394;-82
2022/08/08 02:06:53;;;;;;;26.15;21.77;;;14.60;81.40;;;;;;4995028;28;20040;-83
2022/08/08 02:09:37;;;;;;;24.77;22.17;;;14.60;82.00;;;;;;5007618;28;20038;-78
2022/08/08 02:12:12;;;;;;;24.38;21.67;;;14.60;82.20;;;;;;4998546;28;20492;-79
2022/08/08 02:14:41;;;;;;;26.25;23.20;;;14.60;82.50;;;;;;4998553;28;20399;-81
2022/08/08 02:17:45;;;;;;;30.38;25.20;;;14.60;82.60;;;;;;4996044;28;20038;-80
2022/08/08 02:23:58;;;;;;;28.52;24.23;;;14.50;83.00;;;;;;4994415;28;20088;-79
2022/08/08 02:26:31;;;;;;;30.80;25.60;;;14.50;83.10;;;;;;5006813;28;20034;-82
2022/08/08 02:29:28;;;;;;;26.30;23.10;;;14.50;83.10;;;;;;5011424;28;20025;-79
2022/08/08 02:32:21;;;;;;;25.77;23.00;;;14.50;83.20;;;;;;4980214;28;20089;-79
2022/08/08 02:35:01;;;;;;;25.30;22.58;;;14.40;83.20;;;;;;5004007;28;20532;-79
2022/08/08 02:38:20;;;;;;;28.45;23.02;;;14.50;83.00;;;;;;5009226;28;20479;-79
2022/08/08 02:40:51;;;;;;;25.38;22.23;;;14.50;82.60;;;;;;5011732;28;20040;-81
2022/08/08 02:43:48;;;;;;;22.25;19.90;;;14.40;82.60;;;;;;5011364;28;20512;-79
2022/08/08 02:46:19;;;;;;;26.48;22.17;;;14.40;82.40;;;;;;5011912;28;20030;-80
2022/08/08 02:49:15;;;;;;;24.73;20.63;;;14.40;82.20;;;;;;5013717;28;20515;-82
2022/08/08 02:52:13;;;;;;;25.40;20.95;;;14.40;82.00;;;;;;5011387;28;20142;-80
2022/08/08 02:54:56;;;;;;;23.15;20.05;;;14.30;81.60;;;;;;5013533;28;20037;-77
2022/08/08 02:57:57;;;;;;;22.92;19.95;;;14.30;81.30;;;;;;5010414;28;20902;-80
2022/08/08 03:01:07;;;;;;;24.30;20.45;;;14.30;81.30;;;;;;4998356;28;20066;-79
2022/08/08 03:04:02;;;;;;;23.85;21.15;;;14.20;81.40;;;;;;5003888;28;20042;-82
2022/08/08 03:06:31;;;;;;;26.92;23.98;;;14.20;81.50;;;;;;4979099;28;20497;-77
2022/08/08 03:09:37;;;;;;;25.02;22.35;;;14.10;81.70;;;;;;4985788;28;20398;-77
2022/08/08 03:12:03;;;;;;;25.50;22.60;;;14.10;82.30;;;;;;5014984;28;20081;-78
2022/08/08 03:15:01;;;;;;;27.35;24.35;;;14.10;82.40;;;;;;4971794;28;20034;-79
2022/08/08 03:17:27;;;;;;;24.88;22.15;;;14.10;82.50;;;;;;4984391;28;20137;-77
2022/08/08 03:20:05;;;;;;;24.17;21.42;;;14.10;82.60;;;;;;5002087;28;20053;-80
2022/08/08 03:22:31;;;;;;;28.45;24.15;;;14.10;82.60;;;;;;4996333;28;20063;-80
2022/08/08 03:25:02;;;;;;;25.58;22.88;;;14.10;82.60;;;;;;5005991;28;20038;-77
2022/08/08 03:27:40;;;;;;;30.08;26.92;;;14.10;82.70;;;;;;5009496;28;20109;-77
2022/08/08 03:30:07;;;;;;;26.08;23.35;;;14.10;82.70;;;;;;4988722;28;20458;-77
2022/08/08 03:35:18;;;;;;;30.73;26.52;;;14.10;82.90;;;;;;4984588;28;20137;-78
2022/08/08 03:37:45;;;;;;;32.88;29.38;;;14.20;83.00;;;;;;4978803;28;20121;-79
2022/08/08 03:40:11;;;;;;;35.33;30.17;;;14.20;83.10;;;;;;5002504;28;20038;-77
2022/08/08 03:42:37;;;;;;;32.88;29.30;;;14.20;83.50;;;;;;4989285;28;20038;-78
2022/08/08 03:45:17;;;;;;;35.10;31.23;;;14.20;83.70;;;;;;4991539;28;20030;-80
2022/08/08 03:47:43;;;;;;;35.47;31.65;;;14.20;84.00;;;;;;4977112;28;20129;-81
2022/08/08 03:50:17;;;;;;;33.90;30.23;;;14.20;84.10;;;;;;4976193;28;20046;-78
2022/08/08 03:52:43;;;;;;;35.20;30.73;;;14.20;84.10;;;;;;4997556;28;20038;-80
2022/08/08 03:55:10;;;;;;;35.92;32.03;;;14.10;84.30;;;;;;4986709;28;20695;-78
2022/08/08 03:57:35;;;;;;;36.47;32.45;;;14.10;84.50;;;;;;4982028;28;20026;-78
2022/08/08 04:00:08;;;;;;;35.45;31.10;;;14.10;84.60;;;;;;4983536;28;20508;-77
2022/08/08 04:02:34;;;;;;;33.08;28.70;;;14.10;84.50;;;;;;4976861;28;20041;-82
2022/08/08 04:05:04;;;;;;;34.10;30.42;;;14.20;84.40;;;;;;4983355;28;20031;-80
2022/08/08 04:07:37;;;;;;;36.38;30.50;;;14.10;84.30;;;;;;4984720;28;20033;-77
2022/08/08 04:10:04;;;;;;;33.97;29.65;;;14.10;84.30;;;;;;4992229;28;20463;-80
2022/08/08 04:12:30;;;;;;;33.38;28.55;;;14.10;84.30;;;;;;4978520;28;20042;-77
2022/08/08 04:14:56;;;;;;;36.30;32.45;;;14.20;84.20;;;;;;4993659;28;20034;-78
2022/08/08 04:17:22;;;;;;;33.88;29.17;;;14.20;83.80;;;;;;4991970;28;20042;-78
2022/08/08 04:19:47;;;;;;;35.30;31.48;;;14.10;83.90;;;;;;4994932;28;20781;-78
2022/08/08 04:22:13;;;;;;;34.88;30.65;;;14.20;83.90;;;;;;4997074;28;20038;-78
2022/08/08 04:24:38;;;;;;;33.00;29.48;;;14.20;83.80;;;;;;4992963;28;20039;-78
2022/08/08 04:27:05;;;;;;;34.30;29.52;;;14.20;83.90;;;;;;4980805;28;20081;-79
2022/08/08 04:29:31;;;;;;;33.45;28.98;;;14.30;83.80;;;;;;4993213;28;20477;-77
2022/08/08 04:31:57;;;;;;;33.80;30.08;;;14.30;83.70;;;;;;4993394;28;20045;-79
2022/08/08 04:34:22;;;;;;;42.10;32.92;;;14.30;83.60;;;;;;4989534;28;20041;-79
2022/08/08 04:36:48;;;;;;;37.80;32.63;;;14.30;83.60;;;;;;4987416;28;20038;-79
2022/08/08 04:39:14;;;;;;;35.28;29.92;;;14.30;83.60;;;;;;4989314;28;20037;-79
2022/08/08 04:41:39;;;;;;;41.67;33.40;;;14.30;83.70;;;;;;4983256;28;20038;-81
2022/08/08 04:44:05;;;;;;;38.35;33.53;;;14.40;83.80;;;;;;4971327;28;20089;-78
2022/08/08 04:46:31;;;;;;;39.63;33.47;;;14.40;83.90;;;;;;4998185;28;20113;-78
2022/08/08 04:48:57;;;;;;;35.25;31.45;;;14.40;84.00;;;;;;4989975;28;20544;-78
2022/08/08 04:51:22;;;;;;;34.00;30.27;;;14.30;84.00;;;;;;4996353;28;20042;-79
2022/08/08 04:53:48;;;;;;;33.97;29.52;;;14.40;84.10;;;;;;4992086;28;20064;-79
2022/08/08 04:56:16;;;;;;;35.10;31.40;;;14.50;84.10;;;;;;4991107;28;20546;-80
2022/08/08 04:58:42;;;;;;;32.75;29.15;;;14.50;83.90;;;;;;4990210;28;20042;-78
2022/08/08 05:01:08;;;;;;;33.10;29.60;;;14.60;83.40;;;;;;5002805;28;20041;-78
2022/08/08 05:03:33;;;;;;;32.75;29.23;;;14.60;83.40;;;;;;4986307;28;20039;-77
2022/08/08 05:05:59;;;;;;;35.33;30.42;;;14.60;83.30;;;;;;4989113;28;20042;-78
2022/08/08 05:08:25;;;;;;;36.13;30.90;;;14.70;82.90;;;;;;4991928;28;20037;-79
2022/08/08 05:10:52;;;;;;;38.15;32.25;;;14.60;82.80;;;;;;4981081;28;20468;-81
2022/08/08 05:13:17;;;;;;;32.60;28.83;;;14.70;82.80;;;;;;4981306;28;20030;-78
2022/08/08 05:15:43;;;;;;;33.58;29.98;;;14.70;82.80;;;;;;5001245;28;20491;-78
2022/08/08 05:18:09;;;;;;;34.83;31.13;;;14.80;82.70;;;;;;4988377;28;20035;-80
2022/08/08 05:20:34;;;;;;;37.85;33.85;;;14.80;82.50;;;;;;4990304;28;20072;-77
2022/08/08 05:23:00;;;;;;;40.10;34.38;;;14.80;82.60;;;;;;4986727;28;20042;-79
2022/08/08 05:25:26;;;;;;;36.10;32.25;;;14.90;82.90;;;;;;4997582;28;20106;-84
2022/08/08 05:27:52;;;;;;;38.38;33.95;;;14.90;83.20;;;;;;4995638;28;20049;-78
2022/08/08 05:30:18;;;;;;;40.08;35.58;;;14.90;83.70;;;;;;5001600;28;20446;-80
2022/08/08 05:32:44;;;;;;;40.95;36.47;;;14.90;84.40;;;;;;4998522;28;20498;-77
2022/08/08 05:35:12;;;;;;;38.17;34.08;;;15.00;84.50;;;;;;4985044;28;20073;-76
2022/08/08 05:37:44;;;;;;;40.20;35.28;;;15.00;84.50;;;;;;4987542;28;20041;-78
2022/08/08 05:40:11;;;;;;;39.50;35.25;;;15.10;84.60;;;;;;5011122;28;20384;-78
2022/08/08 05:42:41;;;;;;;39.53;35.33;;;15.10;84.40;;;;;;4994996;28;20441;-77
2022/08/08 05:45:08;;;;;;;38.05;33.60;;;15.20;84.50;;;;;;4994329;28;20116;-79
2022/08/08 05:47:36;;;;;;;39.05;34.63;;;15.30;84.40;;;;;;4982739;28;20063;-77
2022/08/08 05:50:06;;;;;;;41.30;36.13;;;15.40;84.20;;;;;;4994785;28;20026;-77
2022/08/08 05:52:35;;;;;;;39.63;35.38;;;15.40;84.00;;;;;;5004104;28;20035;-77
2022/08/08 05:55:02;;;;;;;38.92;34.03;;;15.50;84.00;;;;;;4991279;28;20073;-77
2022/08/08 05:57:31;;;;;;;39.17;34.60;;;15.50;83.80;;;;;;5009383;28;20774;-78
2022/08/08 06:00:00;;;;;;;37.78;33.70;;;15.50;83.80;;;;;;5007159;28;20543;-77
2022/08/08 06:05:14;;;;;;;36.90;32.22;;;15.80;83.50;;;;;;5006615;28;20185;-79
2022/08/08 06:07:40;;;;;;;36.25;32.28;;;15.90;83.10;;;;;;5008423;28;20033;-81
2022/08/08 06:10:10;;;;;;;37.08;32.28;;;15.90;83.00;;;;;;5009301;28;20032;-79
2022/08/08 06:12:36;;;;;;;35.10;30.98;;;16.10;82.80;;;;;;4996725;28;20042;-77
2022/08/08 06:15:05;;;;;;;35.92;31.40;;;16.10;82.80;;;;;;4995753;28;20473;-80
2022/08/08 06:17:36;;;;;;;37.10;33.22;;;16.20;82.70;;;;;;5000739;28;20111;-77
2022/08/08 06:20:03;;;;;;;33.72;30.13;;;16.30;82.50;;;;;;5001251;28;20048;-76
2022/08/08 06:22:29;;;;;;;33.83;30.20;;;16.50;82.30;;;;;;4994829;28;20042;-80
2022/08/08 06:24:55;;;;;;;34.45;30.73;;;16.60;81.60;;;;;;5001940;28;20033;-77
2022/08/08 06:27:56;;;;;;;32.97;29.23;;;16.80;81.50;;;;;;4994368;28;20389;-78
2022/08/08 06:30:22;;;;;;;35.75;29.55;;;17.00;80.90;;;;;;4997653;28;20037;-79
2022/08/08 06:32:54;;;;;;;33.80;28.92;;;17.10;80.40;;;;;;4997947;28;20050;-80
2022/08/08 06:35:20;;;;;;;33.63;28.92;;;17.30;79.50;;;;;;5003782;28;20044;-76
2022/08/08 06:37:51;;;;;;;26.48;21.33;;;17.30;79.60;;;;;;4999617;28;20339;-74
2022/08/08 06:40:18;;;;;;;23.40;20.98;;;17.60;80.90;;;;;;5002432;28;20034;-74
2022/08/08 06:42:54;;;;;;;33.92;26.85;;;18.00;80.40;;;;;;5001344;28;20033;-74
2022/08/08 06:45:21;;;;;;;24.02;21.63;;;18.00;77.90;;;;;;5000784;28;20616;-74
2022/08/08 06:47:48;;;;;;;32.83;25.05;;;18.40;78.20;;;;;;4995362;28;21079;-74
2022/08/08 06:50:14;;;;;;;27.98;20.95;;;18.60;76.60;;;;;;4992124;28;20058;-75
2022/08/08 06:52:41;;;;;;;29.40;24.25;;;18.70;75.90;;;;;;4999969;28;20050;-74
2022/08/08 06:55:07;;;;;;;26.45;20.92;;;18.70;75.40;;;;;;4998631;28;20454;-73
2022/08/08 06:57:33;;;;;;;24.30;20.77;;;18.80;75.10;;;;;;4999521;28;20454;-75
2022/08/08 07:00:00;;;;;;;26.65;21.88;;;19.00;74.30;;;;;;4999895;28;20048;-73
2022/08/08 07:02:30;;;;;;;26.48;22.38;;;19.10;74.00;;;;;;4996511;28;20030;-75
2022/08/08 07:05:03;;;;;;;28.17;22.00;;;19.10;73.40;;;;;;5001808;28;20034;-75
2022/08/08 07:07:47;;;;;;;23.83;19.70;;;19.30;72.70;;;;;;4982087;28;20034;-75
2022/08/08 07:10:18;;;;;;;24.63;17.95;;;19.40;72.40;;;;;;4976348;28;20065;-75
2022/08/08 07:12:53;;;;;;;22.38;17.35;;;19.60;72.30;;;;;;4975532;28;20390;-75
2022/08/08 07:15:37;;;;;;;20.67;15.68;;;19.70;71.80;;;;;;4974431;28;20038;-75
2022/08/08 07:18:05;;;;;;;24.33;19.80;;;19.90;72.50;;;;;;4978008;28;20073;-75
2022/08/08 07:20:36;;;;;;;24.20;15.52;;;20.00;70.60;;;;;;4979920;28;20049;-75
2022/08/08 07:23:06;;;;;;;19.85;17.48;;;20.20;71.00;;;;;;4977609;28;20034;-75
2022/08/08 07:25:37;;;;;;;24.23;18.80;;;20.30;69.70;;;;;;4974899;28;20057;-75
2022/08/08 07:28:11;;;;;;;24.58;17.45;;;20.30;69.40;;;;;;4976803;28;20517;-75
2022/08/08 07:30:38;;;;;;;23.98;17.30;;;20.10;70.00;;;;;;4977342;28;20833;-76
2022/08/08 07:33:04;;;;;;;24.48;17.88;;;20.40;68.90;;;;;;4986151;28;20045;-75
2022/08/08 07:35:30;;;;;;;19.17;15.77;;;20.50;68.90;;;;;;4991588;28;20034;-75
2022/08/08 07:37:57;;;;;;;18.35;14.07;;;20.60;68.10;;;;;;4976508;28;20540;-75
2022/08/08 07:40:24;;;;;;;20.05;14.45;;;20.60;68.20;;;;;;4977417;28;20100;-75
2022/08/08 07:42:52;;;;;;;17.02;13.95;;;20.70;67.00;;;;;;4978292;28;20045;-76
2022/08/08 07:45:19;;;;;;;21.65;14.77;;;20.80;66.70;;;;;;4974451;28;20042;-77
2022/08/08 07:47:45;;;;;;;18.92;15.23;;;20.70;66.70;;;;;;4978562;28;20117;-75
2022/08/08 07:50:10;;;;;;;16.33;14.32;;;20.60;66.60;;;;;;4977370;28;20043;-75
2022/08/08 07:52:38;;;;;;;20.25;13.43;;;20.70;67.40;;;;;;4970318;28;20111;-78
2022/08/08 07:55:07;;;;;;;18.98;13.02;;;20.80;66.90;;;;;;4995870;28;20033;-81
2022/08/08 07:57:56;;;;;;;16.45;12.82;;;20.70;65.60;;;;;;4999387;28;20691;-76
2022/08/08 08:00:25;;;;;;;19.10;14.30;;;20.80;66.70;;;;;;4989216;28;20528;-77
2022/08/08 08:02:54;;;;;;;18.00;13.30;;;20.90;65.40;;;;;;4993010;28;20370;-76
2022/08/08 08:05:24;;;;;;;17.30;13.48;;;21.20;64.90;;;;;;4977732;28;20053;-75
2022/08/08 08:08:13;;;;;;;18.60;13.18;;;21.30;63.70;;;;;;4973885;28;20466;-76
2022/08/08 08:10:39;;;;;;;17.45;11.85;;;21.40;64.00;;;;;;4973505;28;20050;-76
2022/08/08 08:13:29;;;;;;;16.73;11.88;;;21.60;63.90;;;;;;4968919;28;20063;-76
2022/08/08 08:16:04;;;;;;;17.02;11.15;;;21.50;62.50;;;;;;4976830;28;20121;-76
2022/08/08 08:18:55;;;;;;;16.05;10.73;;;21.60;62.30;;;;;;5000016;28;20022;-79
2022/08/08 08:21:22;;;;;;;20.05;12.10;;;21.80;61.30;;;;;;4979642;28;20146;-80
2022/08/08 08:23:47;;;;;;;16.98;12.82;;;22.00;61.20;;;;;;4992173;28;20029;-78
2022/08/08 08:26:13;;;;;;;15.95;11.93;;;21.90;61.20;;;;;;4998971;28;20026;-78
2022/08/08 08:28:39;;;;;;;17.40;11.40;;;21.90;61.20;;;;;;4977290;28;20034;-80
2022/08/08 08:31:05;;;;;;;18.30;11.13;;;22.10;60.80;;;;;;4978783;28;20034;-80
2022/08/08 08:33:32;;;;;;;14.95;10.63;;;22.20;61.30;;;;;;4976867;28;20058;-78
2022/08/08 08:35:58;;;;;;;18.70;11.80;;;22.70;60.10;;;;;;4973180;28;20063;-80
2022/08/08 08:38:24;;;;;;;13.63;10.23;;;22.70;59.00;;;;;;4975838;28;20036;-79
2022/08/08 08:40:50;;;;;;;15.80;10.00;;;22.60;59.50;;;;;;4978584;28;20041;-77
2022/08/08 08:43:17;;;;;;;16.67;8.65;;;22.60;58.50;;;;;;4958812;28;20126;-79
2022/08/08 08:45:45;;;;;;;15.43;9.48;;;22.30;58.50;;;;;;4970700;28;20034;-77
2022/08/08 08:48:13;;;;;;;16.38;8.98;;;22.40;58.00;;;;;;4977181;28;20601;-76
2022/08/08 08:50:40;;;;;;;12.60;7.55;;;22.60;57.90;;;;;;4982626;28;20179;-76
2022/08/08 08:53:08;;;;;;;11.43;8.23;;;22.70;58.20;;;;;;4987835;28;20031;-77
2022/08/08 08:55:37;;;;;;;12.18;7.13;;;22.70;57.30;;;;;;4981070;28;20022;-75
2022/08/08 08:58:04;;;;;;;12.52;6.05;;;22.90;56.10;;;;;;4981857;28;20031;-77
2022/08/08 09:00:35;;;;;;;9.65;5.43;;;22.80;53.90;;;;;;4982304;28;20053;-77
2022/08/08 09:03:04;;;;;;;11.90;4.90;;;22.80;53.70;;;;;;4978664;28;20060;-79
2022/08/08 09:05:34;;;;;;;8.65;4.50;;;22.80;51.50;;;;;;4985143;28;20120;-79
2022/08/08 09:08:03;;;;;;;10.10;6.30;;;22.80;52.10;;;;;;4987791;28;20034;-79
2022/08/08 09:10:31;;;;;;;12.80;7.25;;;23.30;53.50;;;;;;5000240;28;20076;-78
2022/08/08 09:12:59;;;;;;;22.52;8.02;;;23.30;54.80;;;;;;4981259;28;20034;-79
2022/08/08 09:15:26;;;;;;;11.00;5.40;;;23.40;54.00;;;;;;4975260;28;20049;-78
2022/08/08 09:17:52;;;;;;;10.25;5.43;;;23.50;52.50;;;;;;4981197;28;20449;-78
2022/08/08 09:20:18;;;;;;;13.07;6.72;;;23.70;52.80;;;;;;4987420;28;20027;-78
2022/08/08 09:22:45;;;;;;;11.43;6.90;;;23.90;52.30;;;;;;4975695;28;20097;-78
2022/08/08 09:25:11;;;;;;;10.30;5.90;;;23.70;52.40;;;;;;4980109;28;20065;-78
2022/08/08 09:27:38;;;;;;;10.68;5.72;;;23.60;52.40;;;;;;4987212;28;20078;-79
2022/08/08 09:30:07;;;;;;;10.93;5.97;;;23.90;52.00;;;;;;4992748;28;20037;-79
2022/08/08 09:32:36;;;;;;;14.73;6.50;;;23.40;51.80;;;;;;4997100;28;20429;-82
2022/08/08 09:35:07;;;;;;;12.23;6.28;;;23.60;53.10;;;;;;4996814;28;20365;-78
2022/08/08 09:37:39;;;;;;;13.15;6.88;;;23.80;52.60;;;;;;4973416;28;20617;-83
2022/08/08 09:40:08;;;;;;;10.93;5.60;;;23.90;52.00;;;;;;4988236;28;20034;-80
2022/08/08 09:42:48;;;;;;;18.08;6.82;;;23.90;52.80;;;;;;4987333;28;20108;-80
2022/08/08 09:45:30;;;;;;;19.67;7.28;;;23.80;52.20;;;;;;4978139;28;20034;-80
2022/08/08 09:48:00;;;;;;;11.75;6.03;;;23.70;52.20;;;;;;5017431;28;20061;-83
2022/08/08 09:50:26;;;;;;;9.75;5.85;;;23.60;52.70;;;;;;4997602;28;20531;-81
2022/08/08 09:52:53;;;;;;;13.18;6.35;;;23.70;52.70;;;;;;4981012;28;20039;-83
2022/08/08 09:55:21;;;;;;;14.10;6.70;;;24.10;52.80;;;;;;4977128;28;20137;-81
2022/08/08 09:57:55;;;;;;;13.57;6.38;;;24.10;51.90;;;;;;4985694;28;20047;-78
2022/08/08 10:00:24;;;;;;;12.50;6.95;;;24.10;51.10;;;;;;5009408;28;20085;-82
2022/08/08 10:02:51;;;;;;;14.65;6.20;;;24.10;51.70;;;;;;4985553;28;20122;-80
2022/08/08 10:05:28;;;;;;;11.23;5.50;;;24.30;51.50;;;;;;4985414;28;20076;-77
2022/08/08 10:07:55;;;;;;;8.90;5.32;;;24.50;50.50;;;;;;4986448;28;20054;-78
2022/08/08 10:10:39;;;;;;;8.60;4.80;;;24.60;50.60;;;;;;4979643;28;20062;-78
2022/08/08 10:13:19;;;;;;;11.02;5.28;;;24.60;50.40;;;;;;4977254;28;20043;-78
2022/08/08 10:15:47;;;;;;;9.73;5.10;;;24.60;49.40;;;;;;4976817;28;20133;-78
2022/08/08 10:18:26;;;;;;;9.10;3.95;;;24.50;50.30;;;;;;4976187;28;20027;-79
2022/08/08 10:20:57;;;;;;;8.50;4.60;;;25.00;50.60;;;;;;4983406;28;20346;-80
2022/08/08 10:23:46;;;;;;;10.52;4.55;;;25.00;49.20;;;;;;4978365;28;20110;-81
2022/08/08 10:26:24;;;;;;;7.88;4.47;;;25.00;49.30;;;;;;4985122;28;20377;-79
2022/08/08 10:29:05;;;;;;;10.45;4.95;;;25.10;49.90;;;;;;5000485;28;21180;-80
2022/08/08 10:34:21;;;;;;;10.85;3.85;;;24.50;49.70;;;;;;5004197;28;20169;-79
2022/08/08 10:36:48;;;;;;;8.93;4.80;;;24.60;50.70;;;;;;4993888;28;20030;-78
2022/08/08 10:39:25;;;;;;;7.35;3.33;;;24.90;50.20;;;;;;4994842;28;20034;-79
2022/08/08 10:41:58;;;;;;;9.48;3.35;;;24.90;48.60;;;;;;4997706;28;20033;-78
2022/08/08 10:44:34;;;;;;;9.43;3.70;;;24.90;48.70;;;;;;4997102;28;20092;-78
2022/08/08 10:47:17;;;;;;;7.05;2.95;;;24.70;48.30;;;;;;4995430;28;20029;-79
2022/08/08 10:49:54;;;;;;;7.80;2.88;;;24.40;49.30;;;;;;4995498;28;20038;-79
2022/08/08 10:52:42;;;;;;;6.78;3.08;;;24.70;47.70;;;;;;4982369;28;20441;-79
2022/08/08 10:55:18;;;;;;;10.27;3.13;;;24.90;47.40;;;;;;4972714;28;20050;-79
2022/08/08 10:57:45;;;;;;;5.97;2.90;;;25.10;47.60;;;;;;4975175;28;20034;-79
2022/08/08 11:00:13;;;;;;;5.85;2.53;;;25.40;46.20;;;;;;4977432;28;20058;-79
2022/08/08 11:02:39;;;;;;;5.32;2.50;;;25.50;46.20;;;;;;4974824;28;20046;-78
2022/08/08 11:05:10;;;;;;;6.30;2.55;;;25.60;45.90;;;;;;4974516;28;20066;-79
2022/08/08 11:07:41;;;;;;;6.50;2.33;;;25.20;46.50;;;;;;4990386;28;20749;-78
2022/08/08 11:10:12;;;;;;;5.43;2.28;;;24.90;46.50;;;;;;4985036;28;20397;-74
2022/08/08 11:12:52;;;;;;;8.88;3.22;;;25.40;46.80;;;;;;4983406;28;20042;-74
2022/08/08 11:15:20;;;;;;;9.57;2.53;;;25.10;46.10;;;;;;5029886;28;20034;-74
2022/08/08 11:17:47;;;;;;;6.10;2.42;;;25.50;45.10;;;;;;4990464;28;20027;-74
2022/08/08 11:20:16;;;;;;;3.97;1.98;;;25.20;45.30;;;;;;4981207;28;20026;-74
2022/08/08 11:22:42;;;;;;;7.43;2.55;;;25.10;45.00;;;;;;4980776;28;20035;-74
2022/08/08 11:25:10;;;;;;;7.75;2.72;;;25.60;44.70;;;;;;4974412;28;20084;-74
2022/08/08 11:27:36;;;;;;;6.35;2.25;;;25.40;44.50;;;;;;5008299;28;20053;-74
2022/08/08 11:30:07;;;;;;;6.07;2.10;;;25.60;45.20;;;;;;4975467;28;20349;-75
2022/08/08 11:32:37;;;;;;;7.53;2.42;;;26.00;44.50;;;;;;5024337;28;20041;-74
2022/08/08 11:35:08;;;;;;;8.32;3.08;;;26.50;43.80;;;;;;4982887;28;20040;-75
2022/08/08 11:37:35;;;;;;;7.50;3.17;;;26.70;43.90;;;;;;4990666;28;20030;-76
2022/08/08 11:40:04;;;;;;;5.88;2.45;;;26.50;44.60;;;;;;4987186;28;20197;-75
2022/08/08 11:42:30;;;;;;;6.63;2.28;;;26.00;45.10;;;;;;4970599;28;20510;-75
2022/08/08 11:44:57;;;;;;;6.55;2.40;;;25.60;45.90;;;;;;4972435;28;20369;-74
2022/08/08 11:47:24;;;;;;;7.75;2.60;;;25.10;47.60;;;;;;4975173;28;20114;-75
2022/08/08 11:49:56;;;;;;;8.95;2.75;;;25.60;45.50;;;;;;4980117;28;20394;-74
2022/08/08 11:52:23;;;;;;;8.68;2.95;;;25.80;45.60;;;;;;4978942;28;20042;-75
2022/08/08 11:54:49;;;;;;;5.70;2.10;;;26.00;45.10;;;;;;4973458;28;20027;-75
2022/08/08 11:57:20;;;;;;;6.88;2.08;;;26.00;45.00;;;;;;4973859;28;20031;-76
2022/08/08 11:59:58;;;;;;;5.78;1.77;;;26.10;44.60;;;;;;4983790;28;20030;-76
2022/08/08 12:02:26;;;;;;;5.03;1.63;;;26.10;44.10;;;;;;4981279;28;20150;-74
2022/08/08 12:05:07;;;;;;;4.60;1.77;;;26.00;42.20;;;;;;4977069;28;20109;-75
2022/08/08 12:07:52;;;;;;;4.18;2.20;;;25.70;43.80;;;;;;4980097;28;20026;-75
2022/08/08 12:10:20;;;;;;;4.18;1.60;;;26.40;44.30;;;;;;4975323;28;20062;-74
2022/08/08 12:12:48;;;;;;;4.50;1.65;;;26.60;42.50;;;;;;4975048;28;20389;-74
2022/08/08 12:15:26;;;;;;;5.05;1.88;;;26.30;42.80;;;;;;4970701;28;20483;-75
2022/08/08 12:17:52;;;;;;;5.35;1.90;;;26.50;42.90;;;;;;4983195;28;20524;-74
2022/08/08 12:20:18;;;;;;;6.28;1.90;;;26.10;44.40;;;;;;4979236;28;20030;-75
2022/08/08 12:22:49;;;;;;;5.78;1.77;;;26.20;43.80;;;;;;4988941;28;20050;-75
2022/08/08 12:25:20;;;;;;;3.50;1.67;;;26.30;43.60;;;;;;4984895;28;20045;-75
2022/08/08 12:27:46;;;;;;;6.13;2.00;;;26.50;43.30;;;;;;5008768;28;20026;-76
2022/08/08 12:30:12;;;;;;;5.60;1.90;;;26.50;42.60;;;;;;5000236;28;20401;-77
2022/08/08 12:32:43;;;;;;;4.38;2.00;;;25.70;44.70;;;;;;4995860;28;20047;-76
2022/08/08 12:35:20;;;;;;;5.25;2.20;;;25.60;45.60;;;;;;5003652;28;20112;-74
2022/08/08 12:38:04;;;;;;;5.90;2.17;;;25.10;46.20;;;;;;5003076;28;20118;-73
2022/08/08 12:40:44;;;;;;;6.00;2.53;;;25.50;46.60;;;;;;4977594;28;20351;-73
2022/08/08 12:43:11;;;;;;;10.75;2.35;;;25.70;46.00;;;;;;4976126;28;20128;-74
2022/08/08 12:45:39;;;;;;;6.05;2.42;;;25.80;45.80;;;;;;4986508;28;20437;-75
2022/08/08 12:48:14;;;;;;;5.13;2.13;;;26.00;44.10;;;;;;4979106;28;20485;-75
2022/08/08 12:50:42;;;;;;;6.97;2.45;;;26.20;43.60;;;;;;4975133;28;20026;-73
2022/08/08 12:53:29;;;;;;;5.13;2.35;;;26.00;43.80;;;;;;4978785;28;20039;-74
2022/08/08 12:56:02;;;;;;;7.85;2.70;;;26.30;43.90;;;;;;4989059;28;20481;-75
2022/08/08 12:58:42;;;;;;;6.57;2.60;;;26.90;42.20;;;;;;4992088;28;20355;-74
2022/08/08 13:01:09;;;;;;;5.47;2.30;;;27.40;42.10;;;;;;4982499;28;20023;-73
2022/08/08 13:03:36;;;;;;;7.63;2.67;;;27.30;41.60;;;;;;4980328;28;20029;-73
2022/08/08 13:06:22;;;;;;;3.90;2.28;;;26.60;42.40;;;;;;4980166;28;20030;-74
2022/08/08 13:08:50;;;;;;;4.70;2.47;;;25.90;43.20;;;;;;4979749;28;20034;-74
2022/08/08 13:11:34;;;;;;;7.38;2.50;;;25.60;43.80;;;;;;4982324;28;20175;-75
2022/08/08 13:14:04;;;;;;;4.95;2.42;;;25.60;43.60;;;;;;4979046;28;20031;-75
2022/08/08 13:16:32;;;;;;;5.18;2.60;;;26.40;43.20;;;;;;4991143;28;20049;-74